createdAt,value
2019-03-26T00:00:15.823Z,306.26
2019-03-26T00:01:16.165Z,306.87
2019-03-26T00:02:16.496Z,306.62
2019-03-26T00:03:16.809Z,306.32
2019-03-26T00:04:17.147Z,306.18
2019-03-26T00:05:17.470Z,306.26
2019-03-26T00:06:17.858Z,306.76
2019-03-26T00:07:18.396Z,306.37
2019-03-26T00:08:18.472Z,306.53
2019-03-26T00:09:18.806Z,306.38
2019-03-26T00:10:19.145Z,306.20
2019-03-26T00:11:19.769Z,306.21
2019-03-26T00:12:19.800Z,306.65
2019-03-26T00:13:20.116Z,306.34
2019-03-26T00:14:20.471Z,306.58
2019-03-26T00:15:20.901Z,306.65
2019-03-26T00:16:21.134Z,306.68
2019-03-26T00:17:21.453Z,306.24
2019-03-26T00:18:21.761Z,306.31
2019-03-26T00:19:22.119Z,306.54
2019-03-26T00:20:22.406Z,306.43
2019-03-26T00:21:22.775Z,306.68
2019-03-26T00:22:23.132Z,306.32
2019-03-26T00:23:23.460Z,306.03
2019-03-26T00:24:23.758Z,306.30
2019-03-26T00:25:24.076Z,306.20
2019-03-26T00:26:24.389Z,306.29
2019-03-26T00:27:24.784Z,306.70
2019-03-26T00:28:25.079Z,306.43
2019-03-26T00:29:25.437Z,306.42
2019-03-26T00:30:25.734Z,306.13
2019-03-26T00:31:26.118Z,306.43
2019-03-26T00:32:26.429Z,306.34
2019-03-26T00:33:35.639Z,306.55
2019-03-26T00:34:28.103Z,306.45
2019-03-26T00:35:27.412Z,306.52
2019-03-26T00:36:27.741Z,306.48
2019-03-26T00:37:28.102Z,306.42
2019-03-26T00:38:28.452Z,306.28
2019-03-26T00:39:28.777Z,306.50
2019-03-26T00:40:29.186Z,306.77
2019-03-26T00:41:29.404Z,306.39
2019-03-26T00:42:29.761Z,306.25
2019-03-26T00:43:30.049Z,306.54
2019-03-26T00:44:30.414Z,306.71
2019-03-26T00:45:30.724Z,306.00
2019-03-26T00:46:31.054Z,306.67
2019-03-26T00:47:31.415Z,306.18
2019-03-26T00:48:31.836Z,306.59
2019-03-26T00:49:32.070Z,306.27
2019-03-26T00:50:32.379Z,306.99
2019-03-26T00:51:32.713Z,306.84
2019-03-26T00:52:33.074Z,305.89
2019-03-26T00:53:33.375Z,306.20
2019-03-26T00:54:33.694Z,306.57
2019-03-26T00:55:34.035Z,306.35
2019-03-26T00:56:34.450Z,306.29
2019-03-26T00:57:34.736Z,306.88
2019-03-26T00:58:35.035Z,306.48
2019-03-26T00:59:35.345Z,306.00
2019-03-26T01:00:35.700Z,306.35
2019-03-26T01:01:36.048Z,306.46
2019-03-26T01:02:36.403Z,306.21
2019-03-26T01:03:36.709Z,305.91
2019-03-26T01:04:37.076Z,306.33
2019-03-26T01:05:37.348Z,306.35
2019-03-26T01:06:37.700Z,306.34
2019-03-26T01:07:38.071Z,306.36
2019-03-26T01:08:38.365Z,307.04
2019-03-26T01:09:38.710Z,306.70
2019-03-26T01:10:39.064Z,306.30
2019-03-26T01:11:39.360Z,306.49
2019-03-26T01:12:39.757Z,306.16
2019-03-26T01:13:40.118Z,306.39
2019-03-26T01:14:40.364Z,306.48
2019-03-26T01:15:40.712Z,306.13
2019-03-26T01:16:41.043Z,306.23
2019-03-26T01:17:41.355Z,306.37
2019-03-26T01:18:41.675Z,306.55
2019-03-26T01:19:42.052Z,306.20
2019-03-26T01:20:42.375Z,306.66
2019-03-26T01:21:42.816Z,306.42
2019-03-26T01:22:43.263Z,306.55
2019-03-26T01:23:43.353Z,306.36
2019-03-26T01:24:43.682Z,306.41
2019-03-26T01:25:44.022Z,306.33
2019-03-26T01:26:44.337Z,306.63
2019-03-26T01:27:44.717Z,306.65
2019-03-26T01:28:44.988Z,306.68
2019-03-26T01:29:45.389Z,306.92
2019-03-26T01:30:45.668Z,306.21
2019-03-26T01:31:45.993Z,306.62
2019-03-26T01:32:46.347Z,306.32
2019-03-26T01:33:46.626Z,306.58
2019-03-26T01:34:46.975Z,306.54
2019-03-26T01:35:47.324Z,306.52
2019-03-26T01:36:47.640Z,306.55
2019-03-26T01:37:48.072Z,306.28
2019-03-26T01:38:48.286Z,306.55
2019-03-26T01:39:48.598Z,306.87
2019-03-26T01:40:48.958Z,306.53
2019-03-26T01:41:49.369Z,306.35
2019-03-26T01:42:49.620Z,306.62
2019-03-26T01:43:49.924Z,306.05
2019-03-26T01:44:50.256Z,306.51
2019-03-26T01:45:50.614Z,306.63
2019-03-26T01:46:50.944Z,306.55
2019-03-26T01:47:51.284Z,306.40
2019-03-26T01:48:51.578Z,306.42
2019-03-26T01:49:51.909Z,306.69
2019-03-26T01:50:52.256Z,306.64
2019-03-26T01:51:52.551Z,306.52
2019-03-26T01:52:52.924Z,306.49
2019-03-26T01:53:53.256Z,306.13
2019-03-26T01:54:53.663Z,307.01
2019-03-26T01:55:53.897Z,306.27
2019-03-26T01:56:54.220Z,306.74
2019-03-26T01:57:54.574Z,306.17
2019-03-26T01:58:54.895Z,306.89
2019-03-26T01:59:55.224Z,306.23
2019-03-26T02:00:55.572Z,306.13
2019-03-26T02:01:55.879Z,306.16
2019-03-26T02:02:56.330Z,306.98
2019-03-26T02:03:56.552Z,306.59
2019-03-26T02:05:00.272Z,312.10
2019-03-26T02:05:57.242Z,312.05
2019-03-26T02:06:57.537Z,312.02
2019-03-26T02:07:57.893Z,312.00
2019-03-26T02:08:58.244Z,312.51
2019-03-26T02:09:58.575Z,312.52
2019-03-26T02:10:58.966Z,312.52
2019-03-26T02:11:59.221Z,311.81
2019-03-26T02:12:59.565Z,312.06
2019-03-26T02:13:59.898Z,312.00
2019-03-26T02:15:00.388Z,311.92
2019-03-26T02:16:00.562Z,312.19
2019-03-26T02:17:00.871Z,312.15
2019-03-26T02:18:01.229Z,312.30
2019-03-26T02:19:01.647Z,312.35
2019-03-26T02:20:01.850Z,312.22
2019-03-26T02:21:02.187Z,311.99
2019-03-26T02:22:02.504Z,312.38
2019-03-26T02:23:03.146Z,312.29
2019-03-26T02:24:10.037Z,312.20
2019-03-26T02:25:03.492Z,312.11
2019-03-26T02:26:03.847Z,312.40
2019-03-26T02:27:04.208Z,312.12
2019-03-26T02:28:04.610Z,311.88
2019-03-26T02:29:04.846Z,312.03
2019-03-26T02:30:05.156Z,312.36
2019-03-26T02:31:05.495Z,312.04
2019-03-26T02:32:05.835Z,312.24
2019-03-26T02:33:06.156Z,312.27
2019-03-26T02:34:06.519Z,312.16
2019-03-26T02:35:17.751Z,312.77
2019-03-26T02:36:08.250Z,311.87
2019-03-26T02:37:07.460Z,311.72
2019-03-26T02:38:07.793Z,312.14
2019-03-26T02:39:08.143Z,312.53
2019-03-26T02:40:08.452Z,312.03
2019-03-26T02:41:08.851Z,312.69
2019-03-26T02:42:09.107Z,312.08
2019-03-26T02:43:09.444Z,312.23
2019-03-26T02:44:09.887Z,312.06
2019-03-26T02:45:10.091Z,311.99
2019-03-26T02:46:10.430Z,312.29
2019-03-26T02:47:10.751Z,312.30
2019-03-26T02:48:11.081Z,311.90
2019-03-26T02:49:11.445Z,312.39
2019-03-26T02:50:11.747Z,312.06
2019-03-26T02:51:12.098Z,312.39
2019-03-26T02:52:12.476Z,311.87
2019-03-26T02:53:12.724Z,312.35
2019-03-26T02:54:13.103Z,306.73
2019-03-26T02:55:13.388Z,306.74
2019-03-26T02:56:13.733Z,306.76
2019-03-26T02:57:14.041Z,306.44
2019-03-26T02:58:14.361Z,307.01
2019-03-26T02:59:14.786Z,306.04
2019-03-26T03:00:15.106Z,306.98
2019-03-26T03:01:15.640Z,306.26
2019-03-26T03:02:15.733Z,306.41
2019-03-26T03:03:16.049Z,306.93
2019-03-26T03:04:16.407Z,306.64
2019-03-26T03:05:33.548Z,306.67
2019-03-26T03:06:18.044Z,306.81
2019-03-26T03:07:17.372Z,306.86
2019-03-26T03:08:17.744Z,306.56
2019-03-26T03:09:18.192Z,306.58
2019-03-26T03:10:18.364Z,306.46
2019-03-26T03:11:18.690Z,306.47
2019-03-26T03:12:19.041Z,306.69
2019-03-26T03:13:19.370Z,306.96
2019-03-26T03:14:19.743Z,306.72
2019-03-26T03:15:20.011Z,306.72
2019-03-26T03:16:20.369Z,306.66
2019-03-26T03:17:21.002Z,306.54
2019-03-26T03:18:21.044Z,306.53
2019-03-26T03:19:21.329Z,306.34
2019-03-26T03:20:21.583Z,306.40
2019-03-26T03:21:21.905Z,306.71
2019-03-26T03:22:22.260Z,306.75
2019-03-26T03:23:22.554Z,306.07
2019-03-26T03:24:23.219Z,306.47
2019-03-26T03:25:23.319Z,306.89
2019-03-26T03:26:23.595Z,307.08
2019-03-26T03:27:23.964Z,306.70
2019-03-26T03:28:24.257Z,307.10
2019-03-26T03:29:24.628Z,306.79
2019-03-26T03:30:24.910Z,306.98
2019-03-26T03:31:25.251Z,307.04
2019-03-26T03:32:25.590Z,306.74
2019-03-26T03:33:25.950Z,307.41
2019-03-26T03:34:26.246Z,306.69
2019-03-26T03:35:26.644Z,306.93
2019-03-26T03:36:26.880Z,306.38
2019-03-26T03:37:27.247Z,306.91
2019-03-26T03:38:27.559Z,306.67
2019-03-26T03:39:27.940Z,306.64
2019-03-26T03:40:28.220Z,306.75
2019-03-26T03:41:28.554Z,306.83
2019-03-26T03:42:28.970Z,306.88
2019-03-26T03:43:29.206Z,307.03
2019-03-26T03:44:29.597Z,306.51
2019-03-26T03:45:29.866Z,306.62
2019-03-26T03:46:30.179Z,306.60
2019-03-26T03:47:30.540Z,306.24
2019-03-26T03:48:30.962Z,306.68
2019-03-26T03:49:31.269Z,306.54
2019-03-26T03:50:31.631Z,306.57
2019-03-26T03:51:31.851Z,306.39
2019-03-26T03:52:32.198Z,306.91
2019-03-26T03:53:32.512Z,306.42
2019-03-26T03:54:32.883Z,306.48
2019-03-26T03:55:33.169Z,307.24
2019-03-26T03:56:33.499Z,306.33
2019-03-26T03:57:33.831Z,306.59
2019-03-26T03:58:34.241Z,307.09
2019-03-26T03:59:34.526Z,306.69
2019-03-26T04:00:34.808Z,306.86
2019-03-26T04:01:35.169Z,307.21
2019-03-26T04:02:35.459Z,306.20
2019-03-26T04:03:35.801Z,306.45
2019-03-26T04:04:36.159Z,307.07
2019-03-26T04:05:36.472Z,306.96
2019-03-26T04:06:36.870Z,306.80
2019-03-26T04:07:37.129Z,306.56
2019-03-26T04:08:37.438Z,306.70
2019-03-26T04:09:37.778Z,306.73
2019-03-26T04:10:38.129Z,306.69
2019-03-26T04:11:38.456Z,307.06
2019-03-26T04:12:38.794Z,306.84
2019-03-26T04:13:39.110Z,306.50
2019-03-26T04:14:39.447Z,306.76
2019-03-26T04:15:39.827Z,306.82
2019-03-26T04:16:40.125Z,307.17
2019-03-26T04:17:40.466Z,307.06
2019-03-26T04:18:40.774Z,306.56
2019-03-26T04:19:41.112Z,306.68
2019-03-26T04:20:41.465Z,306.65
2019-03-26T04:21:41.814Z,306.48
2019-03-26T04:22:42.138Z,306.38
2019-03-26T04:23:42.551Z,306.83
2019-03-26T04:24:42.753Z,306.96
2019-03-26T04:25:43.115Z,306.35
2019-03-26T04:26:43.453Z,306.32
2019-03-26T04:27:43.771Z,306.25
2019-03-26T04:28:44.094Z,306.48
2019-03-26T04:29:44.409Z,306.58
2019-03-26T04:30:44.738Z,306.13
2019-03-26T04:31:45.225Z,306.50
2019-03-26T04:32:45.426Z,306.35
2019-03-26T04:33:45.739Z,306.07
2019-03-26T04:34:46.078Z,306.66
2019-03-26T04:35:46.384Z,306.54
2019-03-26T04:36:46.739Z,305.96
2019-03-26T04:37:47.093Z,306.76
2019-03-26T04:38:47.396Z,306.70
2019-03-26T04:39:47.756Z,305.93
2019-03-26T04:40:48.053Z,306.37
2019-03-26T04:41:48.383Z,306.26
2019-03-26T04:42:48.955Z,306.81
2019-03-26T04:43:49.033Z,306.04
2019-03-26T04:44:49.360Z,305.95
2019-03-26T04:45:49.722Z,306.57
2019-03-26T04:46:50.031Z,306.39
2019-03-26T04:47:50.420Z,306.49
2019-03-26T04:48:50.655Z,306.04
2019-03-26T04:49:51.009Z,311.68
2019-03-26T04:50:51.351Z,312.48
2019-03-26T04:51:51.681Z,311.90
2019-03-26T04:52:52.020Z,306.85
2019-03-26T04:53:52.314Z,312.08
2019-03-26T04:54:52.660Z,312.13
2019-03-26T04:55:53.042Z,311.96
2019-03-26T04:56:53.422Z,312.25
2019-03-26T04:57:53.685Z,312.54
2019-03-26T04:58:54.047Z,312.71
2019-03-26T04:59:54.321Z,312.52
2019-03-26T05:00:54.675Z,312.55
2019-03-26T05:01:54.991Z,312.22
2019-03-26T05:02:55.327Z,312.35
2019-03-26T05:03:55.644Z,312.20
2019-03-26T05:04:56.105Z,306.87
2019-03-26T05:05:56.316Z,312.49
2019-03-26T05:06:56.641Z,312.64
2019-03-26T05:07:56.968Z,312.28
2019-03-26T05:08:57.284Z,312.77
2019-03-26T05:09:57.606Z,312.99
2019-03-26T05:10:57.967Z,312.28
2019-03-26T05:11:58.689Z,312.65
2019-03-26T05:12:58.699Z,312.31
2019-03-26T05:13:58.943Z,312.78
2019-03-26T05:14:59.258Z,312.63
2019-03-26T05:15:59.617Z,312.42
2019-03-26T05:16:59.957Z,312.26
2019-03-26T05:18:00.263Z,312.55
2019-03-26T05:19:00.592Z,312.04
2019-03-26T05:20:00.921Z,312.16
2019-03-26T05:21:01.301Z,312.21
2019-03-26T05:22:01.555Z,312.49
2019-03-26T05:23:01.897Z,312.60
2019-03-26T05:24:02.254Z,312.88
2019-03-26T05:25:02.570Z,312.17
2019-03-26T05:26:02.921Z,312.13
2019-03-26T05:27:03.295Z,311.62
2019-03-26T05:28:03.557Z,312.33
2019-03-26T05:29:03.968Z,312.37
2019-03-26T05:30:04.264Z,312.24
2019-03-26T05:31:04.567Z,312.11
2019-03-26T05:32:04.893Z,311.96
2019-03-26T05:33:05.201Z,312.17
2019-03-26T05:34:05.558Z,311.69
2019-03-26T05:35:05.880Z,312.51
2019-03-26T05:36:06.221Z,311.85
2019-03-26T05:37:06.555Z,311.60
2019-03-26T05:38:06.969Z,312.51
2019-03-26T05:39:07.208Z,312.19
2019-03-26T05:40:07.519Z,312.44
2019-03-26T05:41:10.291Z,312.02
2019-03-26T05:42:08.197Z,311.91
2019-03-26T05:43:08.504Z,312.00
2019-03-26T05:44:08.833Z,311.89
2019-03-26T05:45:09.170Z,311.96
2019-03-26T05:46:09.629Z,312.21
2019-03-26T05:47:09.835Z,311.73
2019-03-26T05:48:10.142Z,312.25
2019-03-26T05:49:10.501Z,312.02
2019-03-26T05:50:10.829Z,311.82
2019-03-26T05:51:11.176Z,312.09
2019-03-26T05:52:11.489Z,312.13
2019-03-26T05:53:11.819Z,312.24
2019-03-26T05:54:12.199Z,312.28
2019-03-26T05:55:12.460Z,311.90
2019-03-26T05:56:12.812Z,312.48
2019-03-26T05:57:13.149Z,312.00
2019-03-26T05:58:13.455Z,311.71
2019-03-26T05:59:13.800Z,311.89
2019-03-26T06:00:14.097Z,312.45
2019-03-26T06:01:14.447Z,311.37
2019-03-26T06:02:17.850Z,312.41
2019-03-26T06:03:15.081Z,311.92
2019-03-26T06:04:15.441Z,311.94
2019-03-26T06:05:15.754Z,312.05
2019-03-26T06:06:16.080Z,312.52
2019-03-26T06:07:16.441Z,312.41
2019-03-26T06:08:16.735Z,312.61
2019-03-26T06:09:17.091Z,312.77
2019-03-26T06:10:17.471Z,312.13
2019-03-26T06:11:17.802Z,312.37
2019-03-26T06:12:18.078Z,312.44
2019-03-26T06:13:18.392Z,312.61
2019-03-26T06:14:18.739Z,312.02
2019-03-26T06:15:19.045Z,312.62
2019-03-26T06:16:19.399Z,312.20
2019-03-26T06:17:19.994Z,312.84
2019-03-26T06:18:20.049Z,312.37
2019-03-26T06:19:20.522Z,312.76
2019-03-26T06:20:20.726Z,312.24
2019-03-26T06:21:21.041Z,312.29
2019-03-26T06:22:21.384Z,312.51
2019-03-26T06:23:21.742Z,312.43
2019-03-26T06:24:22.078Z,312.65
2019-03-26T06:25:22.388Z,312.63
2019-03-26T06:26:22.716Z,313.08
2019-03-26T06:27:23.110Z,312.67
2019-03-26T06:28:23.385Z,312.22
2019-03-26T06:29:23.746Z,312.83
2019-03-26T06:30:24.059Z,312.71
2019-03-26T06:31:24.391Z,312.67
2019-03-26T06:32:24.730Z,312.86
2019-03-26T06:33:25.076Z,312.94
2019-03-26T06:34:25.413Z,312.60
2019-03-26T06:35:25.770Z,312.25
2019-03-26T06:36:28.194Z,312.42
2019-03-26T06:37:26.384Z,312.78
2019-03-26T06:38:26.704Z,312.99
2019-03-26T06:39:27.022Z,312.07
2019-03-26T06:40:27.342Z,312.44
2019-03-26T06:41:27.680Z,313.11
2019-03-26T06:42:28.024Z,312.58
2019-03-26T06:43:28.396Z,312.64
2019-03-26T06:44:28.732Z,312.38
2019-03-26T06:45:28.992Z,312.70
2019-03-26T06:46:29.335Z,312.82
2019-03-26T06:47:29.679Z,312.58
2019-03-26T06:48:29.998Z,312.35
2019-03-26T06:49:30.337Z,313.01
2019-03-26T06:50:30.647Z,312.85
2019-03-26T06:51:30.978Z,312.54
2019-03-26T06:52:31.446Z,312.76
2019-03-26T06:53:31.649Z,312.84
2019-03-26T06:54:31.988Z,312.20
2019-03-26T06:55:32.334Z,312.42
2019-03-26T06:56:32.603Z,312.38
2019-03-26T06:57:35.879Z,312.92
2019-03-26T06:58:33.301Z,312.73
2019-03-26T06:59:33.628Z,312.85
2019-03-26T07:00:34.032Z,312.57
2019-03-26T07:01:34.269Z,312.76
2019-03-26T07:02:34.613Z,312.85
2019-03-26T07:03:34.965Z,312.59
2019-03-26T07:04:35.283Z,312.84
2019-03-26T07:05:35.599Z,307.06
2019-03-26T07:06:35.905Z,312.49
2019-03-26T07:07:36.271Z,306.57
2019-03-26T07:08:36.675Z,312.61
2019-03-26T07:09:36.926Z,313.01
2019-03-26T07:10:37.253Z,312.16
2019-03-26T07:11:37.574Z,312.52
2019-03-26T07:12:37.907Z,312.92
2019-03-26T07:13:38.254Z,312.50
2019-03-26T07:14:38.600Z,311.99
2019-03-26T07:15:38.913Z,312.98
2019-03-26T07:16:39.291Z,312.97
2019-03-26T07:17:39.569Z,312.07
2019-03-26T07:18:39.897Z,311.93
2019-03-26T07:19:40.238Z,312.39
2019-03-26T07:20:40.552Z,312.05
2019-03-26T07:21:49.160Z,312.37
2019-03-26T07:22:42.224Z,312.38
2019-03-26T07:23:41.554Z,312.57
2019-03-26T07:24:41.880Z,312.71
2019-03-26T07:25:42.271Z,311.77
2019-03-26T07:26:42.560Z,312.14
2019-03-26T07:27:42.902Z,312.06
2019-03-26T07:28:43.210Z,312.33
2019-03-26T07:29:43.549Z,312.33
2019-03-26T07:30:43.888Z,312.42
2019-03-26T07:31:44.222Z,312.46
2019-03-26T07:32:44.570Z,312.27
2019-03-26T07:33:44.989Z,312.55
2019-03-26T07:34:45.189Z,311.93
2019-03-26T07:35:45.549Z,312.36
2019-03-26T07:36:45.884Z,312.58
2019-03-26T07:37:46.222Z,312.13
2019-03-26T07:38:46.556Z,312.08
2019-03-26T07:39:46.852Z,312.16
2019-03-26T07:40:47.205Z,312.47
2019-03-26T07:41:47.610Z,312.31
2019-03-26T07:42:47.866Z,312.58
2019-03-26T07:43:48.202Z,312.23
2019-03-26T07:44:48.510Z,312.37
2019-03-26T07:45:48.854Z,312.74
2019-03-26T07:46:49.169Z,312.51
2019-03-26T07:47:49.598Z,312.23
2019-03-26T07:48:49.917Z,312.06
2019-03-26T07:49:50.292Z,312.40
2019-03-26T07:50:50.571Z,312.42
2019-03-26T07:51:50.874Z,312.35
2019-03-26T07:52:51.247Z,312.27
2019-03-26T07:53:51.550Z,312.48
2019-03-26T07:54:51.878Z,312.56
2019-03-26T07:55:52.223Z,312.15
2019-03-26T07:56:52.538Z,312.62
2019-03-26T07:57:52.955Z,312.68
2019-03-26T07:58:53.218Z,312.80
2019-03-26T07:59:53.554Z,313.03
2019-03-26T08:00:54.119Z,313.29
2019-03-26T08:01:54.192Z,312.72
2019-03-26T08:02:54.556Z,312.52
2019-03-26T08:03:54.826Z,312.47
2019-03-26T08:04:55.179Z,312.58
2019-03-26T08:05:55.545Z,312.85
2019-03-26T08:06:55.950Z,312.44
2019-03-26T08:07:58.634Z,312.67
2019-03-26T08:08:56.497Z,312.77
2019-03-26T08:09:56.846Z,313.19
2019-03-26T08:10:57.221Z,313.02
2019-03-26T08:11:57.508Z,312.95
2019-03-26T08:12:57.888Z,313.08
2019-03-26T08:13:58.159Z,312.56
2019-03-26T08:14:58.605Z,312.31
2019-03-26T08:15:58.887Z,312.41
2019-03-26T08:16:59.182Z,312.50
2019-03-26T08:17:59.524Z,312.53
2019-03-26T08:18:59.808Z,312.85
2019-03-26T08:20:00.329Z,312.43
2019-03-26T08:21:00.529Z,312.67
2019-03-26T08:22:00.831Z,312.51
2019-03-26T08:23:01.271Z,312.49
2019-03-26T08:24:01.487Z,312.60
2019-03-26T08:25:01.802Z,312.25
2019-03-26T08:26:02.158Z,311.81
2019-03-26T08:27:02.468Z,312.72
2019-03-26T08:28:04.905Z,312.75
2019-03-26T08:29:03.140Z,312.19
2019-03-26T08:30:03.460Z,312.30
2019-03-26T08:31:03.841Z,312.09
2019-03-26T08:32:04.094Z,311.98
2019-03-26T08:33:04.436Z,312.30
2019-03-26T08:34:04.774Z,312.40
2019-03-26T08:35:05.104Z,312.23
2019-03-26T08:36:05.451Z,312.61
2019-03-26T08:37:05.746Z,312.53
2019-03-26T08:38:12.560Z,312.18
2019-03-26T08:39:07.491Z,312.03
2019-03-26T08:40:06.881Z,312.68
2019-03-26T08:41:07.125Z,312.46
2019-03-26T08:42:07.434Z,312.59
2019-03-26T08:43:07.783Z,312.45
2019-03-26T08:44:08.130Z,312.17
2019-03-26T08:45:08.440Z,312.53
2019-03-26T08:46:08.790Z,312.24
2019-03-26T08:47:09.107Z,312.12
2019-03-26T08:48:09.536Z,312.61
2019-03-26T08:49:09.791Z,312.15
2019-03-26T08:50:10.108Z,311.96
2019-03-26T08:51:10.444Z,312.27
2019-03-26T08:52:10.746Z,312.45
2019-03-26T08:53:11.072Z,312.43
2019-03-26T08:54:11.452Z,312.36
2019-03-26T08:55:11.760Z,312.03
2019-03-26T08:56:12.174Z,312.06
2019-03-26T08:57:12.393Z,312.41
2019-03-26T08:58:12.719Z,312.81
2019-03-26T08:59:13.073Z,312.25
2019-03-26T09:00:13.411Z,312.79
2019-03-26T09:01:13.732Z,312.36
2019-03-26T09:02:14.043Z,312.08
2019-03-26T09:03:14.375Z,312.00
2019-03-26T09:04:14.769Z,312.37
2019-03-26T09:05:15.041Z,312.11
2019-03-26T09:06:15.373Z,312.40
2019-03-26T09:07:15.712Z,312.02
2019-03-26T09:08:24.753Z,312.33
2019-03-26T09:09:17.348Z,312.27
2019-03-26T09:10:16.661Z,311.85
2019-03-26T09:11:17.019Z,312.40
2019-03-26T09:12:17.389Z,312.20
2019-03-26T09:13:17.704Z,312.60
2019-03-26T09:14:18.033Z,311.98
2019-03-26T09:15:18.339Z,312.19
2019-03-26T09:16:18.673Z,311.55
2019-03-26T09:17:19.803Z,312.35
2019-03-26T09:18:19.330Z,311.98
2019-03-26T09:19:19.682Z,306.48
2019-03-26T09:20:20.015Z,306.33
2019-03-26T09:21:20.445Z,306.13
2019-03-26T09:22:20.653Z,306.16
2019-03-26T09:23:20.985Z,306.48
2019-03-26T09:24:21.330Z,306.24
2019-03-26T09:25:21.653Z,306.30
2019-03-26T09:26:21.977Z,306.15
2019-03-26T09:27:22.281Z,305.92
2019-03-26T09:28:22.630Z,305.87
2019-03-26T09:29:23.133Z,306.48
2019-03-26T09:30:23.302Z,306.10
2019-03-26T09:31:23.623Z,306.43
2019-03-26T09:32:23.937Z,306.30
2019-03-26T09:33:24.280Z,305.82
2019-03-26T09:34:24.626Z,306.72
2019-03-26T09:35:24.951Z,306.38
2019-03-26T09:36:25.272Z,306.48
2019-03-26T09:37:25.622Z,306.07
2019-03-26T09:38:37.955Z,306.93
2019-03-26T09:39:27.274Z,306.50
2019-03-26T09:40:26.593Z,306.64
2019-03-26T09:41:27.003Z,306.42
2019-03-26T09:42:27.260Z,306.91
2019-03-26T09:43:27.588Z,306.18
2019-03-26T09:44:27.929Z,306.41
2019-03-26T09:45:28.335Z,306.05
2019-03-26T09:46:28.577Z,306.68
2019-03-26T09:47:28.910Z,306.23
2019-03-26T09:48:29.252Z,306.66
2019-03-26T09:49:29.582Z,305.92
2019-03-26T09:50:29.896Z,306.53
2019-03-26T09:51:30.251Z,306.14
2019-03-26T09:52:30.590Z,306.83
2019-03-26T09:53:30.927Z,306.18
2019-03-26T09:54:31.297Z,306.15
2019-03-26T09:55:31.570Z,305.98
2019-03-26T09:56:32.115Z,306.33
2019-03-26T09:57:32.256Z,306.12
2019-03-26T09:58:32.568Z,306.36
2019-03-26T09:59:32.918Z,306.10
2019-03-26T10:00:33.320Z,305.95
2019-03-26T10:01:33.546Z,306.22
2019-03-26T10:02:34.053Z,304.19
2019-03-26T10:03:34.253Z,304.69
2019-03-26T10:04:34.603Z,305.52
2019-03-26T10:05:34.901Z,305.68
2019-03-26T10:06:35.245Z,305.92
2019-03-26T10:07:35.612Z,305.38
2019-03-26T10:08:35.933Z,306.91
2019-03-26T10:09:36.271Z,305.73
2019-03-26T10:10:36.681Z,306.08
2019-03-26T10:11:36.885Z,306.52
2019-03-26T10:12:37.249Z,306.05
2019-03-26T10:13:37.565Z,305.67
2019-03-26T10:14:37.911Z,305.78
2019-03-26T10:15:38.247Z,305.66
2019-03-26T10:16:38.569Z,305.66
2019-03-26T10:17:38.886Z,305.68
2019-03-26T10:18:39.252Z,305.97
2019-03-26T10:19:39.561Z,305.91
2019-03-26T10:20:39.890Z,305.95
2019-03-26T10:21:40.211Z,305.82
2019-03-26T10:22:40.555Z,305.81
2019-03-26T10:23:40.857Z,305.70
2019-03-26T10:24:41.227Z,305.59
2019-03-26T10:25:41.553Z,305.76
2019-03-26T10:26:41.931Z,306.02
2019-03-26T10:27:42.256Z,305.93
2019-03-26T10:28:42.528Z,305.78
2019-03-26T10:29:42.887Z,306.02
2019-03-26T10:30:43.225Z,305.30
2019-03-26T10:31:43.550Z,305.86
2019-03-26T10:32:43.895Z,305.52
2019-03-26T10:33:44.205Z,306.06
2019-03-26T10:34:44.555Z,305.60
2019-03-26T10:35:44.997Z,306.30
2019-03-26T10:36:45.196Z,306.35
2019-03-26T10:37:45.544Z,306.26
2019-03-26T10:38:45.864Z,305.98
2019-03-26T10:39:46.172Z,306.23
2019-03-26T10:40:46.551Z,306.29
2019-03-26T10:41:46.853Z,306.22
2019-03-26T10:42:47.188Z,305.70
2019-03-26T10:43:47.646Z,306.27
2019-03-26T10:44:47.815Z,306.41
2019-03-26T10:45:48.198Z,306.03
2019-03-26T10:46:48.530Z,306.02
2019-03-26T10:47:48.885Z,306.18
2019-03-26T10:48:49.186Z,306.36
2019-03-26T10:49:49.516Z,306.10
2019-03-26T10:50:49.864Z,306.56
2019-03-26T10:51:50.225Z,305.95
2019-03-26T10:52:50.525Z,306.13
2019-03-26T10:53:50.845Z,306.05
2019-03-26T10:54:51.177Z,306.21
2019-03-26T10:55:51.524Z,305.37
2019-03-26T10:56:51.828Z,305.83
2019-03-26T10:57:52.184Z,305.74
2019-03-26T10:58:52.505Z,306.16
2019-03-26T10:59:52.914Z,306.19
2019-03-26T11:00:53.157Z,305.95
2019-03-26T11:01:53.499Z,306.08
2019-03-26T11:02:54.076Z,306.08
2019-03-26T11:03:54.158Z,306.36
2019-03-26T11:04:54.493Z,305.99
2019-03-26T11:05:54.835Z,305.90
2019-03-26T11:06:55.156Z,305.99
2019-03-26T11:07:55.522Z,306.16
2019-03-26T11:08:55.919Z,311.71
2019-03-26T11:09:56.141Z,312.15
2019-03-26T11:10:56.479Z,311.91
2019-03-26T11:11:56.808Z,312.28
2019-03-26T11:12:57.148Z,312.44
2019-03-26T11:13:58.633Z,312.03
2019-03-26T11:14:57.794Z,312.20
2019-03-26T11:15:58.381Z,311.90
2019-03-26T11:16:58.627Z,312.14
2019-03-26T11:17:58.807Z,312.28
2019-03-26T11:18:59.103Z,312.19
2019-03-26T11:19:59.456Z,312.42
2019-03-26T11:21:02.650Z,312.01
2019-03-26T11:22:00.160Z,311.70
2019-03-26T11:23:00.471Z,312.08
2019-03-26T11:24:00.783Z,312.16
2019-03-26T11:25:01.148Z,312.21
2019-03-26T11:26:01.442Z,312.38
2019-03-26T11:27:01.781Z,311.74
2019-03-26T11:28:02.131Z,312.00
2019-03-26T11:29:02.420Z,311.80
2019-03-26T11:30:02.735Z,311.66
2019-03-26T11:31:03.172Z,311.83
2019-03-26T11:32:03.414Z,311.79
2019-03-26T11:33:03.850Z,311.90
2019-03-26T11:34:04.062Z,311.45
2019-03-26T11:35:04.398Z,311.64
2019-03-26T11:36:04.721Z,311.88
2019-03-26T11:37:05.031Z,311.08
2019-03-26T11:38:05.409Z,311.93
2019-03-26T11:39:05.715Z,312.14
2019-03-26T11:40:06.046Z,311.33
2019-03-26T11:41:06.421Z,311.87
2019-03-26T11:42:06.737Z,312.22
2019-03-26T11:43:07.074Z,311.47
2019-03-26T11:44:07.392Z,311.33
2019-03-26T11:45:07.716Z,311.37
2019-03-26T11:46:08.047Z,311.39
2019-03-26T11:47:08.357Z,311.36
2019-03-26T11:48:08.674Z,311.43
2019-03-26T11:49:09.043Z,311.05
2019-03-26T11:50:09.594Z,311.09
2019-03-26T11:51:09.808Z,310.92
2019-03-26T11:52:10.119Z,311.62
2019-03-26T11:53:10.460Z,311.38
2019-03-26T11:54:10.776Z,311.48
2019-03-26T11:55:11.105Z,311.63
2019-03-26T11:56:11.451Z,311.39
2019-03-26T11:57:11.766Z,311.40
2019-03-26T11:58:12.154Z,311.15
2019-03-26T11:59:12.419Z,311.25
2019-03-26T12:00:12.749Z,311.26
2019-03-26T12:01:13.097Z,311.09
2019-03-26T12:02:13.428Z,311.06
2019-03-26T12:03:13.760Z,311.18
2019-03-26T12:04:14.092Z,310.91
2019-03-26T12:05:14.417Z,310.88
2019-03-26T12:06:14.869Z,310.89
2019-03-26T12:07:15.057Z,310.82
2019-03-26T12:08:15.396Z,310.58
2019-03-26T12:09:15.759Z,310.76
2019-03-26T12:10:16.059Z,310.59
2019-03-26T12:11:16.420Z,311.03
2019-03-26T12:12:16.727Z,310.46
2019-03-26T12:13:17.054Z,311.18
2019-03-26T12:14:17.445Z,311.52
2019-03-26T12:15:17.702Z,311.29
2019-03-26T12:16:18.060Z,310.93
2019-03-26T12:17:18.389Z,311.27
2019-03-26T12:18:18.718Z,311.69
2019-03-26T12:19:19.073Z,311.15
2019-03-26T12:20:19.376Z,312.02
2019-03-26T12:21:19.724Z,311.41
2019-03-26T12:22:20.050Z,311.04
2019-03-26T12:23:20.462Z,311.41
2019-03-26T12:24:20.720Z,311.69
2019-03-26T12:25:21.023Z,311.40
2019-03-26T12:26:21.371Z,311.78
2019-03-26T12:27:21.665Z,311.50
2019-03-26T12:28:22.011Z,311.70
2019-03-26T12:29:22.376Z,311.15
2019-03-26T12:30:22.672Z,311.74
2019-03-26T12:31:23.103Z,311.67
2019-03-26T12:32:23.334Z,311.76